createdAt,value
2023-05-19T00:00:01.801Z,5.8
2023-05-19T00:05:01.082Z,6.6
2023-05-19T00:10:01.066Z,6.8
2023-05-19T00:15:01.531Z,7.1
2023-05-19T00:20:01.075Z,7.4
2023-05-19T00:25:01.064Z,7.9
2023-05-19T00:30:01.488Z,7.5
2023-05-19T00:35:01.111Z,6.8
2023-05-19T00:45:01.555Z,6.6
2023-05-19T00:50:01.074Z,6.5
2023-05-19T00:55:01.057Z,6.7
2023-05-19T01:00:01.890Z,6.6
2023-05-19T01:05:01.093Z,6.8
2023-05-19T01:10:02.025Z,7.2
2023-05-19T01:15:02.518Z,7.0
2023-05-19T01:20:01.073Z,6.5
2023-05-19T01:25:07.378Z,6.2
2023-05-19T01:30:16.515Z,6.4
2023-05-19T01:35:03.103Z,6.1
2023-05-19T01:40:01.061Z,5.9
2023-05-19T01:45:02.449Z,6.4
2023-05-19T01:50:01.125Z,7.3
2023-05-19T01:55:01.064Z,7.5
2023-05-19T02:00:16.849Z,8.1
2023-05-19T02:05:01.059Z,8.0
2023-05-19T02:10:01.062Z,7.6
2023-05-19T02:15:10.490Z,7.4
2023-05-19T02:25:01.147Z,7.3
2023-05-19T02:30:02.376Z,7.5
2023-05-19T02:35:01.075Z,8.7
2023-05-19T02:40:01.079Z,8.8
2023-05-19T02:45:01.758Z,8.6
2023-05-19T02:50:01.074Z,8.7
2023-05-19T02:55:01.090Z,9.2
2023-05-19T03:00:01.877Z,8.8
2023-05-19T03:05:01.091Z,8.4
2023-05-19T03:10:01.082Z,9.0
2023-05-19T03:15:01.582Z,9.4
2023-05-19T03:20:01.305Z,9.2
2023-05-19T03:25:01.116Z,8.6
2023-05-19T03:30:03.837Z,8.4
2023-05-19T03:35:01.583Z,8.1
2023-05-19T03:40:01.551Z,7.5
2023-05-19T03:45:01.987Z,8.2
2023-05-19T03:50:01.068Z,9.0
2023-05-19T03:55:01.082Z,11.0
2023-05-19T04:00:02.256Z,10.6
2023-05-19T04:05:01.134Z,10.3
2023-05-19T04:10:03.759Z,9.4
2023-05-19T04:15:01.601Z,9.2
2023-05-19T04:20:01.607Z,7.9
2023-05-19T04:25:01.113Z,8.6
2023-05-19T04:30:02.478Z,9.2
2023-05-19T04:35:01.668Z,9.5
2023-05-19T04:40:06.991Z,9.4
2023-05-19T04:45:01.569Z,9.3
2023-05-19T04:50:01.059Z,9.1
2023-05-19T04:55:01.079Z,8.8
2023-05-19T05:00:01.557Z,8.4
2023-05-19T05:05:01.058Z,8.8
2023-05-19T05:10:01.059Z,9.1
2023-05-19T05:20:01.916Z,10.1
2023-05-19T05:25:01.778Z,10.8
2023-05-19T05:30:01.437Z,10.5
2023-05-19T05:35:01.646Z,10.2
2023-05-19T05:40:01.899Z,10.5
2023-05-19T05:45:02.201Z,10.5
2023-05-19T05:55:02.787Z,10.6
2023-05-19T06:00:02.833Z,10.6
2023-05-19T06:05:01.119Z,10.0
2023-05-19T06:10:01.617Z,9.9
2023-05-19T06:15:02.014Z,10.7
2023-05-19T06:20:01.131Z,10.8
2023-05-19T06:25:01.068Z,11.0
2023-05-19T06:30:01.690Z,11.5
2023-05-19T06:35:01.070Z,10.9
2023-05-19T06:40:01.103Z,9.8
2023-05-19T06:45:01.754Z,10.2
2023-05-19T06:50:01.164Z,10.6
2023-05-19T06:55:01.075Z,10.4
2023-05-19T07:00:02.686Z,10.6
2023-05-19T07:05:01.630Z,11.2
2023-05-19T07:10:01.794Z,10.9
2023-05-19T07:15:01.690Z,10.8
2023-05-19T07:20:01.642Z,10.9
2023-05-19T07:31:01.469Z,10.7
2023-05-19T07:36:01.107Z,10.6
2023-05-19T07:41:01.928Z,10.5
2023-05-19T07:46:02.577Z,9.8
2023-05-19T07:51:01.497Z,9.3
2023-05-19T07:56:02.036Z,8.5
2023-05-19T08:01:01.523Z,7.3
2023-05-19T08:06:01.556Z,6.0
2023-05-19T08:16:01.941Z,5.4
2023-05-19T08:21:01.631Z,5.0
2023-05-19T08:26:01.669Z,5.5
2023-05-19T08:31:01.947Z,5.8
2023-05-19T08:36:01.238Z,5.6
2023-05-19T08:41:01.071Z,5.3
2023-05-19T08:46:01.056Z,5.2
2023-05-19T08:51:16.482Z,5.0
2023-05-19T08:56:10.085Z,4.7
2023-05-19T09:01:02.099Z,4.9
2023-05-19T09:06:01.088Z,5.4
2023-05-19T09:11:01.089Z,6.1
2023-05-19T09:16:01.976Z,6.5
2023-05-19T09:21:01.553Z,7.6
2023-05-19T09:31:01.146Z,7.8
2023-05-19T09:41:01.068Z,8.2
2023-05-19T09:46:01.141Z,8.5
2023-05-19T09:52:01.122Z,9.4
2023-05-19T09:57:01.064Z,9.0
2023-05-19T10:02:01.078Z,8.6
2023-05-19T10:07:03.623Z,7.3
2023-05-19T10:12:02.297Z,6.1
2023-05-19T10:17:01.110Z,4.5
2023-05-19T10:27:01.110Z,4.2
2023-05-19T10:32:01.083Z,5.1
2023-05-19T10:37:12.646Z,5.0
2023-05-19T10:42:01.077Z,5.5
2023-05-19T10:47:01.122Z,5.3
2023-05-19T10:52:03.048Z,5.2
2023-05-19T10:57:01.069Z,4.7
2023-05-19T11:02:01.068Z,5.1
2023-05-19T11:07:01.612Z,5.3
2023-05-19T11:12:01.191Z,5.9
2023-05-19T11:17:01.186Z,5.7
2023-05-19T11:22:09.625Z,5.8
2023-05-19T11:32:01.111Z,5.2
2023-05-19T11:37:01.162Z,4.6
2023-05-19T11:42:01.848Z,5.2
2023-05-19T11:57:01.072Z,6.0
2023-05-19T12:02:01.098Z,6.2
2023-05-19T12:07:01.541Z,6.1
2023-05-19T12:12:01.062Z,6.5
2023-05-19T12:17:01.054Z,6.1
2023-05-19T12:22:02.840Z,5.0
2023-05-19T12:27:01.058Z,5.1
2023-05-19T12:32:01.991Z,5.0
2023-05-19T12:42:01.107Z,5.4
2023-05-19T12:47:01.090Z,5.6
2023-05-19T12:52:02.572Z,5.4
2023-05-19T12:57:04.845Z,5.9
2023-05-19T13:02:01.116Z,5.4
2023-05-19T13:07:01.113Z,5.3
2023-05-19T13:12:01.574Z,5.9
2023-05-19T13:17:01.157Z,6.7
2023-05-19T13:22:01.461Z,7.5
2023-05-19T13:27:01.626Z,9.3
2023-05-19T13:32:02.127Z,10.0
2023-05-19T13:37:01.719Z,11.0
2023-05-19T13:42:01.070Z,11.4
2023-05-19T13:47:01.143Z,11.8
2023-05-19T13:52:01.079Z,11.2
2023-05-19T13:57:01.633Z,11.7
2023-05-19T14:02:02.282Z,10.9
2023-05-19T14:07:01.078Z,10.6
2023-05-19T14:12:01.072Z,9.7
2023-05-19T14:17:01.116Z,9.4
2023-05-19T14:22:06.070Z,8.0
2023-05-19T14:27:06.153Z,8.2
2023-05-19T14:32:01.191Z,7.8
2023-05-19T14:37:02.158Z,8.0
2023-05-19T14:42:01.056Z,8.4
2023-05-19T14:47:01.157Z,8.9
2023-05-19T14:52:06.786Z,9.0
2023-05-19T15:02:01.071Z,10.3
2023-05-19T15:07:10.054Z,10.1
2023-05-19T15:12:06.547Z,10.6
2023-05-19T15:17:01.941Z,11.2
2023-05-19T15:22:06.074Z,11.8
2023-05-19T15:27:02.073Z,11.0
2023-05-19T15:32:01.181Z,11.6
2023-05-19T15:37:01.065Z,11.4
2023-05-19T15:42:01.493Z,10.6
2023-05-19T15:47:01.455Z,10.9
2023-05-19T15:52:01.107Z,10.2
2023-05-19T15:57:06.176Z,10.1
2023-05-19T16:02:01.117Z,10.9
2023-05-19T16:07:06.154Z,11.6
2023-05-19T16:17:06.060Z,12.1
2023-05-19T16:22:01.084Z,12.2
2023-05-19T16:27:06.100Z,11.8
2023-05-19T16:32:06.150Z,11.7
2023-05-19T16:42:01.067Z,11.9
2023-05-19T16:47:01.107Z,12.0
2023-05-19T16:57:01.112Z,11.8
2023-05-19T17:02:02.396Z,12.0
2023-05-19T17:07:06.150Z,12.4
2023-05-19T17:17:06.102Z,12.0
2023-05-19T17:22:01.120Z,12.6
2023-05-19T17:27:01.087Z,13.2
2023-05-19T17:32:06.209Z,13.0
2023-05-19T17:37:01.588Z,13.2
2023-05-19T17:42:01.060Z,14.3
2023-05-19T17:47:01.092Z,14.9
2023-05-19T17:52:01.073Z,14.4
2023-05-19T17:57:06.077Z,15.2
2023-05-19T18:02:06.175Z,15.4
2023-05-19T18:07:01.068Z,15.2
2023-05-19T18:12:03.560Z,14.8
2023-05-19T18:17:01.118Z,16.0
2023-05-19T18:22:01.188Z,15.2
2023-05-19T18:27:06.059Z,15.8
2023-05-19T18:32:01.077Z,15.6
2023-05-19T18:37:01.665Z,16.4
2023-05-19T18:42:01.186Z,15.8
2023-05-19T18:47:01.058Z,16.4
2023-05-19T18:52:01.090Z,16.2
2023-05-19T18:57:06.088Z,17.0
2023-05-19T19:02:06.076Z,17.3
2023-05-19T19:07:01.063Z,18.0
2023-05-19T19:12:06.075Z,18.4
2023-05-19T19:17:03.995Z,18.0
2023-05-19T19:27:01.065Z,17.3
2023-05-19T19:32:01.116Z,17.9
2023-05-19T19:37:01.124Z,18.7
2023-05-19T19:42:01.063Z,20.8
2023-05-19T19:47:01.057Z,21.8
2023-05-19T19:52:06.907Z,24.5
2023-05-19T19:57:01.089Z,25.9
2023-05-19T20:02:06.116Z,26.8
2023-05-19T20:07:01.508Z,27.1
2023-05-19T20:12:01.091Z,27.7
2023-05-19T20:17:01.065Z,28.1
2023-05-19T20:22:01.101Z,26.7
2023-05-19T20:27:01.077Z,27.1
2023-05-19T20:32:01.090Z,28.1
2023-05-19T20:37:06.067Z,29.8
2023-05-19T20:42:06.131Z,30.0
2023-05-19T20:47:01.102Z,31.0
2023-05-19T20:52:01.114Z,31.3
2023-05-19T21:02:01.060Z,30.0
2023-05-19T21:07:06.150Z,30.7
2023-05-19T21:12:06.108Z,32.4
2023-05-19T21:17:01.131Z,32.5
2023-05-19T21:22:01.072Z,32.6
2023-05-19T21:27:06.102Z,34.9
2023-05-19T21:32:02.399Z,35.5
2023-05-19T21:37:06.066Z,36.0
2023-05-19T21:42:01.071Z,36.6
2023-05-19T21:47:06.094Z,36.9
2023-05-19T21:52:01.118Z,35.5
2023-05-19T21:57:01.069Z,34.8
2023-05-19T22:02:01.149Z,34.2
2023-05-19T22:07:06.082Z,34.9
2023-05-19T22:17:06.067Z,34.0
2023-05-19T22:22:12.903Z,33.8
2023-05-19T22:27:01.135Z,33.6
2023-05-19T22:32:01.102Z,32.1
2023-05-19T22:37:06.078Z,30.9
2023-05-19T22:42:01.102Z,31.1
2023-05-19T22:47:06.121Z,30.0
2023-05-19T22:52:06.101Z,28.9
2023-05-19T22:57:01.082Z,29.2
2023-05-19T23:02:01.098Z,30.6
2023-05-19T23:07:06.152Z,31.3
2023-05-19T23:12:06.126Z,31.6
2023-05-19T23:17:03.018Z,31.9
2023-05-19T23:22:01.068Z,32.7
2023-05-19T23:27:01.098Z,32.8
2023-05-19T23:32:01.060Z,31.0
2023-05-19T23:37:06.094Z,30.7
2023-05-19T23:42:06.120Z,31.0
2023-05-19T23:47:01.130Z,29.9
2023-05-19T23:52:01.101Z,29.8
2023-05-19T23:57:01.122Z,32.0
